Letart, West Virginia
Current Conditions -  °F | °C
As of 6:35 AM on Friday 24 Oct 2014 (Local Time) from K3I2 Reporting Station
Haze Haze  
Wind Chill: 41°   Ceiling: 100
Heat Index: 41°   Visibility: 1.2mi
Dew Point: 39°   Wind: 0mph
Humidity: 93%   Direction: NA
Pressure: 30.15"   Gusts: NA
Location:  38.89°N, 81.93°W
Report Text: K3I2 241035Z AUTO 00000KT 1 1/4SM BR OVC001 05/04 A3015 RMK AO2
Loading
Personal Weather Stations






























Interactive Weather Map
Tropical Storm Tracking
New forecast layout! Learn more

10-Day Weather Forecast

Advertisements
Track Severe Weather on mobile